Goose Creek, South Carolina
Current Conditions -  °F | °C
As of 9:56 PM on Saturday 22 Nov 2014 (Local Time) from KCHS Reporting Station
Overcast Overcast  
Wind Chill: 54°   Ceiling: 11000
Heat Index: 54°   Visibility: 10mi
Dew Point: 52°   Wind: 7mph
Humidity: 93%   Direction: 60°ENE
Pressure: 30.29"   Gusts: NA
Location:  33°N, 80.04°W
Report Text: KCHS 230256Z 06006KT 10SM FEW080 OVC110 12/11 A3029 RMK AO2 RAB41E54 SLP257 P0000 60000 T01220111 58015 $
Loading
Personal Weather Stations






























Interactive Weather Map New forecast layout! Learn more

10-Day Weather Forecast

Advertisements
Track Severe Weather on mobile